sensor_id;sensor_type;location;lat;lon;timestamp;P1;durP1;ratioP1;P2;durP2;ratioP2
44384;SDS011;30101;32.778;34.994;2022-09-27T00:02:50;6.63;;;4.47;;
44384;SDS011;30101;32.778;34.994;2022-09-27T00:07:54;7.05;;;4.53;;
44384;SDS011;30101;32.778;34.994;2022-09-27T00:12:57;5.95;;;5.28;;
44384;SDS011;30101;32.778;34.994;2022-09-27T00:18:01;7.65;;;5.32;;
44384;SDS011;30101;32.778;34.994;2022-09-27T00:23:04;10.02;;;5.40;;
44384;SDS011;30101;32.778;34.994;2022-09-27T00:28:08;7.72;;;5.97;;
44384;SDS011;30101;32.778;34.994;2022-09-27T00:33:11;7.78;;;5.93;;
44384;SDS011;30101;32.778;34.994;2022-09-27T00:38:14;8.80;;;6.00;;
44384;SDS011;30101;32.778;34.994;2022-09-27T00:43:20;8.57;;;6.63;;
44384;SDS011;30101;32.778;34.994;2022-09-27T00:48:25;9.35;;;6.72;;
44384;SDS011;30101;32.778;34.994;2022-09-27T00:53:34;7.07;;;6.10;;
44384;SDS011;30101;32.778;34.994;2022-09-27T00:58:45;8.55;;;6.30;;
44384;SDS011;30101;32.778;34.994;2022-09-27T01:09:18;7.38;;;6.50;;
44384;SDS011;30101;32.778;34.994;2022-09-27T01:30:44;8.77;;;6.63;;
44384;SDS011;30101;32.778;34.994;2022-09-27T01:36:07;11.15;;;6.90;;
44384;SDS011;30101;32.778;34.994;2022-09-27T01:46:32;10.63;;;6.45;;
44384;SDS011;30101;32.778;34.994;2022-09-27T01:52:04;10.32;;;6.45;;
44384;SDS011;30101;32.778;34.994;2022-09-27T01:57:11;7.28;;;6.53;;
44384;SDS011;30101;32.778;34.994;2022-09-27T02:02:21;8.23;;;6.55;;
44384;SDS011;30101;32.778;34.994;2022-09-27T02:08:09;10.27;;;6.55;;
44384;SDS011;30101;32.778;34.994;2022-09-27T02:13:55;9.32;;;6.53;;
44384;SDS011;30101;32.778;34.994;2022-09-27T02:29:59;10.85;;;5.95;;
44384;SDS011;30101;32.778;34.994;2022-09-27T02:35:13;11.18;;;7.10;;
44384;SDS011;30101;32.778;34.994;2022-09-27T02:40:18;9.38;;;6.70;;
44384;SDS011;30101;32.778;34.994;2022-09-27T02:45:22;8.02;;;6.57;;
44384;SDS011;30101;32.778;34.994;2022-09-27T02:50:34;8.30;;;6.43;;
44384;SDS011;30101;32.778;34.994;2022-09-27T03:02:02;8.13;;;6.40;;
44384;SDS011;30101;32.778;34.994;2022-09-27T03:07:33;8.80;;;7.40;;
44384;SDS011;30101;32.778;34.994;2022-09-27T03:12:38;10.45;;;7.15;;
44384;SDS011;30101;32.778;34.994;2022-09-27T03:17:41;11.45;;;6.60;;
44384;SDS011;30101;32.778;34.994;2022-09-27T03:23:03;11.18;;;7.03;;
44384;SDS011;30101;32.778;34.994;2022-09-27T03:28:07;9.45;;;7.57;;
44384;SDS011;30101;32.778;34.994;2022-09-27T03:33:12;8.48;;;7.53;;
44384;SDS011;30101;32.778;34.994;2022-09-27T03:38:31;12.43;;;7.60;;
44384;SDS011;30101;32.778;34.994;2022-09-27T03:43:34;13.00;;;7.68;;
44384;SDS011;30101;32.778;34.994;2022-09-27T03:48:39;8.77;;;7.35;;
44384;SDS011;30101;32.778;34.994;2022-09-27T03:53:42;10.82;;;7.47;;
44384;SDS011;30101;32.778;34.994;2022-09-27T03:58:46;10.35;;;6.43;;
44384;SDS011;30101;32.778;34.994;2022-09-27T04:03:50;8.15;;;7.38;;
44384;SDS011;30101;32.778;34.994;2022-09-27T04:09:07;13.50;;;7.03;;
44384;SDS011;30101;32.778;34.994;2022-09-27T04:14:31;13.88;;;7.00;;
44384;SDS011;30101;32.778;34.994;2022-09-27T04:19:54;19.25;;;7.22;;
44384;SDS011;30101;32.778;34.994;2022-09-27T04:24:59;8.13;;;5.80;;
44384;SDS011;30101;32.778;34.994;2022-09-27T04:30:12;6.82;;;6.10;;
44384;SDS011;30101;32.778;34.994;2022-09-27T04:35:46;11.00;;;6.15;;
44384;SDS011;30101;32.778;34.994;2022-09-27T04:40:50;7.97;;;5.07;;
44384;SDS011;30101;32.778;34.994;2022-09-27T04:45:54;10.57;;;5.47;;
44384;SDS011;30101;32.778;34.994;2022-09-27T04:50:59;8.32;;;5.30;;
44384;SDS011;30101;32.778;34.994;2022-09-27T04:56:04;7.03;;;5.07;;
44384;SDS011;30101;32.778;34.994;2022-09-27T05:01:09;9.40;;;6.03;;
44384;SDS011;30101;32.778;34.994;2022-09-27T05:06:31;5.70;;;5.10;;
44384;SDS011;30101;32.778;34.994;2022-09-27T05:11:41;9.50;;;4.70;;
44384;SDS011;30101;32.778;34.994;2022-09-27T05:16:51;7.13;;;4.78;;
44384;SDS011;30101;32.778;34.994;2022-09-27T05:22:14;8.52;;;5.93;;
44384;SDS011;30101;32.778;34.994;2022-09-27T05:27:19;12.23;;;5.60;;
44384;SDS011;30101;32.778;34.994;2022-09-27T05:32:22;6.93;;;5.15;;
44384;SDS011;30101;32.778;34.994;2022-09-27T05:37:56;10.68;;;5.03;;
44384;SDS011;30101;32.778;34.994;2022-09-27T05:43:02;8.50;;;5.07;;
44384;SDS011;30101;32.778;34.994;2022-09-27T05:48:06;9.27;;;5.32;;
44384;SDS011;30101;32.778;34.994;2022-09-27T05:53:17;9.00;;;5.37;;
44384;SDS011;30101;32.778;34.994;2022-09-27T05:58:21;6.55;;;4.20;;
44384;SDS011;30101;32.778;34.994;2022-09-27T06:03:34;8.40;;;4.55;;
44384;SDS011;30101;32.778;34.994;2022-09-27T06:09:01;6.60;;;4.40;;
44384;SDS011;30101;32.778;34.994;2022-09-27T06:14:06;6.63;;;4.72;;
44384;SDS011;30101;32.778;34.994;2022-09-27T06:19:21;5.38;;;3.95;;
44384;SDS011;30101;32.778;34.994;2022-09-27T06:24:25;4.58;;;3.72;;
44384;SDS011;30101;32.778;34.994;2022-09-27T06:29:29;7.32;;;3.55;;
44384;SDS011;30101;32.778;34.994;2022-09-27T06:34:35;6.65;;;5.10;;
44384;SDS011;30101;32.778;34.994;2022-09-27T06:39:39;9.00;;;4.47;;
44384;SDS011;30101;32.778;34.994;2022-09-27T06:45:12;7.57;;;3.72;;
44384;SDS011;30101;32.778;34.994;2022-09-27T06:50:51;7.22;;;3.40;;
44384;SDS011;30101;32.778;34.994;2022-09-27T06:55:59;7.03;;;3.67;;
44384;SDS011;30101;32.778;34.994;2022-09-27T07:01:12;6.60;;;3.28;;
44384;SDS011;30101;32.778;34.994;2022-09-27T07:06:38;6.32;;;3.55;;
44384;SDS011;30101;32.778;34.994;2022-09-27T07:11:55;8.73;;;4.10;;
44384;SDS011;30101;32.778;34.994;2022-09-27T07:16:59;5.10;;;3.92;;
44384;SDS011;30101;32.778;34.994;2022-09-27T07:22:09;4.93;;;2.88;;
44384;SDS011;30101;32.778;34.994;2022-09-27T07:27:13;8.55;;;3.17;;
44384;SDS011;30101;32.778;34.994;2022-09-27T07:32:17;4.15;;;2.58;;
44384;SDS011;30101;32.778;34.994;2022-09-27T07:37:22;4.55;;;2.90;;
44384;SDS011;30101;32.778;34.994;2022-09-27T07:42:26;6.28;;;2.80;;
44384;SDS011;30101;32.778;34.994;2022-09-27T07:47:31;2.40;;;2.20;;
44384;SDS011;30101;32.778;34.994;2022-09-27T07:52:51;3.72;;;2.63;;
44384;SDS011;30101;32.778;34.994;2022-09-27T07:58:30;4.68;;;3.15;;
44384;SDS011;30101;32.778;34.994;2022-09-27T08:03:36;6.13;;;2.70;;
44384;SDS011;30101;32.778;34.994;2022-09-27T08:08:39;4.28;;;2.90;;
44384;SDS011;30101;32.778;34.994;2022-09-27T08:13:44;2.88;;;2.22;;
44384;SDS011;30101;32.778;34.994;2022-09-27T08:18:48;4.90;;;2.28;;
44384;SDS011;30101;32.778;34.994;2022-09-27T08:24:10;2.78;;;2.00;;
44384;SDS011;30101;32.778;34.994;2022-09-27T08:29:39;3.45;;;1.77;;
44384;SDS011;30101;32.778;34.994;2022-09-27T08:34:42;3.75;;;2.15;;
44384;SDS011;30101;32.778;34.994;2022-09-27T08:39:46;6.43;;;2.33;;
44384;SDS011;30101;32.778;34.994;2022-09-27T09:01:16;3.88;;;3.20;;
44384;SDS011;30101;32.778;34.994;2022-09-27T09:12:48;5.25;;;2.58;;
44384;SDS011;30101;32.778;34.994;2022-09-27T09:34:41;4.93;;;2.40;;
44384;SDS011;30101;32.778;34.994;2022-09-27T09:50:16;4.22;;;2.63;;
44384;SDS011;30101;32.778;34.994;2022-09-27T09:55:37;3.47;;;2.13;;
44384;SDS011;30101;32.778;34.994;2022-09-27T10:00:42;3.00;;;2.70;;
44384;SDS011;30101;32.778;34.994;2022-09-27T10:05:48;3.30;;;2.22;;
44384;SDS011;30101;32.778;34.994;2022-09-27T10:10:52;4.07;;;3.13;;
44384;SDS011;30101;32.778;34.994;2022-09-27T10:16:02;6.80;;;2.90;;
44384;SDS011;30101;32.778;34.994;2022-09-27T10:21:14;5.35;;;2.40;;
44384;SDS011;30101;32.778;34.994;2022-09-27T10:26:22;6.55;;;2.17;;
44384;SDS011;30101;32.778;34.994;2022-09-27T10:31:27;5.28;;;3.45;;
44384;SDS011;30101;32.778;34.994;2022-09-27T10:37:00;5.97;;;2.90;;
44384;SDS011;30101;32.778;34.994;2022-09-27T10:42:31;5.28;;;2.78;;
44384;SDS011;30101;32.778;34.994;2022-09-27T10:47:36;4.90;;;3.10;;
44384;SDS011;30101;32.778;34.994;2022-09-27T10:52:49;8.02;;;3.53;;
44384;SDS011;30101;32.778;34.994;2022-09-27T10:58:15;3.40;;;2.80;;
44384;SDS011;30101;32.778;34.994;2022-09-27T11:03:22;5.50;;;2.08;;
44384;SDS011;30101;32.778;34.994;2022-09-27T11:08:31;5.47;;;2.10;;
44384;SDS011;30101;32.778;34.994;2022-09-27T11:13:55;2.65;;;1.90;;
44384;SDS011;30101;32.778;34.994;2022-09-27T11:24:34;5.45;;;2.92;;
44384;SDS011;30101;32.778;34.994;2022-09-27T11:30:07;4.18;;;1.75;;
44384;SDS011;30101;32.778;34.994;2022-09-27T11:35:22;2.13;;;1.50;;
44384;SDS011;30101;32.778;34.994;2022-09-27T12:03:03;3.70;;;1.40;;
44384;SDS011;30101;32.778;34.994;2022-09-27T12:13:40;2.63;;;1.08;;
44384;SDS011;30101;32.778;34.994;2022-09-27T12:18:49;6.13;;;1.33;;
44384;SDS011;30101;32.778;34.994;2022-09-27T12:24:21;4.97;;;1.60;;
44384;SDS011;30101;32.778;34.994;2022-09-27T12:29:41;7.82;;;1.92;;
44384;SDS011;30101;32.778;34.994;2022-09-27T12:50:48;4.65;;;1.60;;
44384;SDS011;30101;32.778;34.994;2022-09-27T12:56:04;5.75;;;1.10;;
44384;SDS011;30101;32.778;34.994;2022-09-27T13:16:49;5.75;;;1.60;;
44384;SDS011;30101;32.778;34.994;2022-09-27T13:21:56;10.70;;;2.10;;
44384;SDS011;30101;32.778;34.994;2022-09-27T13:32:33;14.15;;;3.58;;
44384;SDS011;30101;32.778;34.994;2022-09-27T13:37:47;6.82;;;1.52;;
44384;SDS011;30101;32.778;34.994;2022-09-27T13:48:25;11.90;;;6.22;;
44384;SDS011;30101;32.778;34.994;2022-09-27T13:58:48;6.20;;;1.77;;
44384;SDS011;30101;32.778;34.994;2022-09-27T14:04:30;6.30;;;1.92;;
44384;SDS011;30101;32.778;34.994;2022-09-27T14:09:44;8.10;;;1.90;;
44384;SDS011;30101;32.778;34.994;2022-09-27T14:15:01;7.85;;;2.38;;
44384;SDS011;30101;32.778;34.994;2022-09-27T14:20:27;11.70;;;2.05;;
44384;SDS011;30101;32.778;34.994;2022-09-27T14:25:43;17.23;;;2.50;;
44384;SDS011;30101;32.778;34.994;2022-09-27T14:36:28;8.60;;;1.58;;
44384;SDS011;30101;32.778;34.994;2022-09-27T14:41:38;9.50;;;1.75;;
44384;SDS011;30101;32.778;34.994;2022-09-27T14:47:14;7.03;;;1.80;;
44384;SDS011;30101;32.778;34.994;2022-09-27T14:52:31;10.07;;;3.35;;
44384;SDS011;30101;32.778;34.994;2022-09-27T14:57:36;7.00;;;1.98;;
44384;SDS011;30101;32.778;34.994;2022-09-27T15:02:41;12.77;;;2.63;;
44384;SDS011;30101;32.778;34.994;2022-09-27T15:07:46;9.35;;;1.90;;
44384;SDS011;30101;32.778;34.994;2022-09-27T15:12:50;11.50;;;2.35;;
44384;SDS011;30101;32.778;34.994;2022-09-27T15:17:57;6.50;;;2.05;;
44384;SDS011;30101;32.778;34.994;2022-09-27T15:23:02;2.75;;;1.85;;
44384;SDS011;30101;32.778;34.994;2022-09-27T15:33:25;7.60;;;1.85;;
44384;SDS011;30101;32.778;34.994;2022-09-27T15:38:31;1.98;;;1.27;;
44384;SDS011;30101;32.778;34.994;2022-09-27T15:43:49;3.90;;;1.38;;
44384;SDS011;30101;32.778;34.994;2022-09-27T15:54:22;2.92;;;1.67;;
44384;SDS011;30101;32.778;34.994;2022-09-27T15:59:28;3.60;;;1.52;;
44384;SDS011;30101;32.778;34.994;2022-09-27T16:04:36;2.25;;;1.20;;
44384;SDS011;30101;32.778;34.994;2022-09-27T16:09:39;8.10;;;1.98;;
44384;SDS011;30101;32.778;34.994;2022-09-27T16:14:43;4.40;;;1.60;;
44384;SDS011;30101;32.778;34.994;2022-09-27T16:19:46;3.50;;;1.42;;
44384;SDS011;30101;32.778;34.994;2022-09-27T16:24:50;7.28;;;1.60;;
44384;SDS011;30101;32.778;34.994;2022-09-27T16:29:53;4.63;;;1.73;;
44384;SDS011;30101;32.778;34.994;2022-09-27T16:34:57;6.70;;;1.70;;
44384;SDS011;30101;32.778;34.994;2022-09-27T16:40:01;5.05;;;1.40;;
44384;SDS011;30101;32.778;34.994;2022-09-27T16:45:06;3.75;;;1.60;;
44384;SDS011;30101;32.778;34.994;2022-09-27T16:50:15;3.08;;;1.35;;
44384;SDS011;30101;32.778;34.994;2022-09-27T16:55:19;3.92;;;1.27;;
44384;SDS011;30101;32.778;34.994;2022-09-27T17:00:22;5.63;;;1.95;;
44384;SDS011;30101;32.778;34.994;2022-09-27T17:05:26;3.45;;;1.92;;
44384;SDS011;30101;32.778;34.994;2022-09-27T17:10:29;5.22;;;1.45;;
44384;SDS011;30101;32.778;34.994;2022-09-27T17:15:35;8.05;;;1.60;;
44384;SDS011;30101;32.778;34.994;2022-09-27T17:20:39;1.58;;;1.40;;
44384;SDS011;30101;32.778;34.994;2022-09-27T17:25:42;5.88;;;1.88;;
44384;SDS011;30101;32.778;34.994;2022-09-27T17:30:45;5.15;;;2.00;;
44384;SDS011;30101;32.778;34.994;2022-09-27T17:35:56;4.88;;;1.70;;
44384;SDS011;30101;32.778;34.994;2022-09-27T17:41:01;3.57;;;2.10;;
44384;SDS011;30101;32.778;34.994;2022-09-27T17:46:09;8.98;;;2.83;;
44384;SDS011;30101;32.778;34.994;2022-09-27T17:51:12;3.90;;;1.40;;
44384;SDS011;30101;32.778;34.994;2022-09-27T17:56:16;7.28;;;2.00;;
44384;SDS011;30101;32.778;34.994;2022-09-27T18:01:20;7.38;;;1.60;;
44384;SDS011;30101;32.778;34.994;2022-09-27T18:06:24;9.38;;;2.20;;
44384;SDS011;30101;32.778;34.994;2022-09-27T18:11:28;5.80;;;1.70;;
44384;SDS011;30101;32.778;34.994;2022-09-27T18:16:33;6.07;;;1.90;;
44384;SDS011;30101;32.778;34.994;2022-09-27T18:21:38;8.70;;;1.70;;
44384;SDS011;30101;32.778;34.994;2022-09-27T18:26:42;4.45;;;1.80;;
44384;SDS011;30101;32.778;34.994;2022-09-27T18:31:46;9.60;;;2.67;;
44384;SDS011;30101;32.778;34.994;2022-09-27T18:36:50;4.55;;;2.33;;
44384;SDS011;30101;32.778;34.994;2022-09-27T18:41:54;5.50;;;1.58;;
44384;SDS011;30101;32.778;34.994;2022-09-27T18:46:58;4.93;;;2.05;;
44384;SDS011;30101;32.778;34.994;2022-09-27T18:52:03;4.70;;;2.05;;
44384;SDS011;30101;32.778;34.994;2022-09-27T18:57:06;13.43;;;5.65;;
44384;SDS011;30101;32.778;34.994;2022-09-27T19:02:10;5.00;;;2.35;;
44384;SDS011;30101;32.778;34.994;2022-09-27T19:07:13;6.63;;;2.38;;
44384;SDS011;30101;32.778;34.994;2022-09-27T19:12:16;8.80;;;2.90;;
44384;SDS011;30101;32.778;34.994;2022-09-27T19:17:20;7.88;;;2.47;;
44384;SDS011;30101;32.778;34.994;2022-09-27T19:22:23;9.32;;;4.07;;
44384;SDS011;30101;32.778;34.994;2022-09-27T19:27:28;10.65;;;3.05;;
44384;SDS011;30101;32.778;34.994;2022-09-27T19:32:32;4.10;;;2.60;;
44384;SDS011;30101;32.778;34.994;2022-09-27T19:37:35;9.30;;;2.95;;
44384;SDS011;30101;32.778;34.994;2022-09-27T19:42:39;5.32;;;3.67;;
44384;SDS011;30101;32.778;34.994;2022-09-27T19:47:45;5.15;;;3.53;;
44384;SDS011;30101;32.778;34.994;2022-09-27T19:52:49;6.07;;;2.95;;
44384;SDS011;30101;32.778;34.994;2022-09-27T19:57:54;9.10;;;3.60;;
44384;SDS011;30101;32.778;34.994;2022-09-27T20:02:58;8.25;;;3.70;;
44384;SDS011;30101;32.778;34.994;2022-09-27T20:08:02;9.43;;;3.90;;
44384;SDS011;30101;32.778;34.994;2022-09-27T20:13:06;7.03;;;4.38;;
44384;SDS011;30101;32.778;34.994;2022-09-27T20:18:10;11.38;;;5.47;;
44384;SDS011;30101;32.778;34.994;2022-09-27T20:23:13;6.18;;;3.90;;
44384;SDS011;30101;32.778;34.994;2022-09-27T20:28:20;9.35;;;4.80;;
44384;SDS011;30101;32.778;34.994;2022-09-27T20:33:24;5.78;;;3.92;;
44384;SDS011;30101;32.778;34.994;2022-09-27T20:38:28;6.55;;;3.88;;
44384;SDS011;30101;32.778;34.994;2022-09-27T20:43:31;9.52;;;3.83;;
44384;SDS011;30101;32.778;34.994;2022-09-27T20:48:34;5.32;;;3.70;;
44384;SDS011;30101;32.778;34.994;2022-09-27T20:53:38;8.48;;;4.10;;
44384;SDS011;30101;32.778;34.994;2022-09-27T20:58:43;9.95;;;3.55;;
44384;SDS011;30101;32.778;34.994;2022-09-27T21:03:54;9.27;;;3.70;;
44384;SDS011;30101;32.778;34.994;2022-09-27T21:08:59;8.70;;;3.28;;
44384;SDS011;30101;32.778;34.994;2022-09-27T21:14:05;8.88;;;3.05;;
44384;SDS011;30101;32.778;34.994;2022-09-27T21:19:09;5.13;;;3.05;;
44384;SDS011;30101;32.778;34.994;2022-09-27T21:24:13;7.75;;;3.00;;
44384;SDS011;30101;32.778;34.994;2022-09-27T21:29:16;7.80;;;3.47;;
44384;SDS011;30101;32.778;34.994;2022-09-27T21:34:19;7.32;;;3.25;;
44384;SDS011;30101;32.778;34.994;2022-09-27T21:39:25;3.90;;;2.72;;
44384;SDS011;30101;32.778;34.994;2022-09-27T21:44:39;8.40;;;3.60;;
44384;SDS011;30101;32.778;34.994;2022-09-27T21:49:42;4.90;;;2.83;;
44384;SDS011;30101;32.778;34.994;2022-09-27T21:54:48;7.85;;;2.92;;
44384;SDS011;30101;32.778;34.994;2022-09-27T21:59:52;6.32;;;3.15;;
44384;SDS011;30101;32.778;34.994;2022-09-27T22:04:58;10.82;;;3.20;;
44384;SDS011;30101;32.778;34.994;2022-09-27T22:10:03;6.00;;;3.65;;
44384;SDS011;30101;32.778;34.994;2022-09-27T22:15:07;3.42;;;3.13;;
44384;SDS011;30101;32.778;34.994;2022-09-27T22:20:11;7.32;;;3.13;;
44384;SDS011;30101;32.778;34.994;2022-09-27T22:25:15;8.85;;;3.30;;
44384;SDS011;30101;32.778;34.994;2022-09-27T22:30:18;5.68;;;3.70;;
44384;SDS011;30101;32.778;34.994;2022-09-27T22:35:22;5.45;;;2.97;;
44384;SDS011;30101;32.778;34.994;2022-09-27T22:40:25;6.53;;;3.63;;
44384;SDS011;30101;32.778;34.994;2022-09-27T22:45:28;5.88;;;2.83;;
44384;SDS011;30101;32.778;34.994;2022-09-27T22:50:32;4.22;;;3.03;;
44384;SDS011;30101;32.778;34.994;2022-09-27T22:55:35;5.68;;;4.32;;
44384;SDS011;30101;32.778;34.994;2022-09-27T23:00:40;7.80;;;3.08;;
44384;SDS011;30101;32.778;34.994;2022-09-27T23:05:43;3.90;;;2.85;;
44384;SDS011;30101;32.778;34.994;2022-09-27T23:10:47;8.18;;;2.75;;
44384;SDS011;30101;32.778;34.994;2022-09-27T23:15:50;9.20;;;3.53;;
44384;SDS011;30101;32.778;34.994;2022-09-27T23:20:56;5.18;;;2.67;;
44384;SDS011;30101;32.778;34.994;2022-09-27T23:26:02;5.28;;;3.42;;
44384;SDS011;30101;32.778;34.994;2022-09-27T23:31:11;6.93;;;2.72;;
44384;SDS011;30101;32.778;34.994;2022-09-27T23:36:17;5.78;;;2.70;;
44384;SDS011;30101;32.778;34.994;2022-09-27T23:41:22;4.88;;;3.20;;
44384;SDS011;30101;32.778;34.994;2022-09-27T23:46:26;6.93;;;2.95;;
44384;SDS011;30101;32.778;34.994;2022-09-27T23:51:29;5.43;;;2.63;;
44384;SDS011;30101;32.778;34.994;2022-09-27T23:56:33;4.63;;;3.10;;
